Time;durP1;ratioP1;P1;durP2;ratioP2;P2;SDS_P1;SDS_P2;PMS_P1;PMS_P2;Temp;Humidity;BMP_temperature;BMP_pressure;BME280_temperature;BME280_humidity;BME280_pressure;Samples;Min_cycle;Max_cycle;Signal;HPM_P1;HPM_P2
2021/01/23 00:01:26;;;;;;;17.77;8.30;;;2.50;92.60;;;;;;4935529;29;20032;-83
2021/01/23 00:03:52;;;;;;;15.33;7.83;;;2.50;92.60;;;;;;4904501;29;20447;-84
2021/01/23 00:06:18;;;;;;;17.67;7.50;;;2.50;92.60;;;;;;4950628;29;20057;-84
2021/01/23 00:08:43;;;;;;;15.93;8.50;;;2.50;92.60;;;;;;4937702;29;20456;-84
2021/01/23 00:11:09;;;;;;;16.97;7.80;;;2.50;92.60;;;;;;4921685;29;20027;-84
2021/01/23 00:13:35;;;;;;;16.87;8.17;;;2.50;92.60;;;;;;4937648;29;20027;-84
2021/01/23 00:16:00;;;;;;;18.73;8.60;;;2.60;92.70;;;;;;4921875;29;20098;-84
2021/01/23 00:18:26;;;;;;;15.03;7.73;;;2.50;92.70;;;;;;4939044;29;20082;-84
2021/01/23 00:20:51;;;;;;;19.97;8.57;;;2.50;92.70;;;;;;4941433;29;20059;-84
2021/01/23 00:23:17;;;;;;;17.73;7.83;;;2.40;92.70;;;;;;4941315;29;20502;-84
2021/01/23 00:25:43;;;;;;;14.60;7.63;;;2.50;92.80;;;;;;4940954;29;20031;-83
2021/01/23 00:28:08;;;;;;;15.47;7.47;;;2.50;92.80;;;;;;4940997;29;20090;-84
2021/01/23 00:30:34;;;;;;;20.03;7.83;;;2.50;92.90;;;;;;4958184;29;20027;-84
2021/01/23 00:32:59;;;;;;;14.90;7.73;;;2.50;92.90;;;;;;4958428;29;20038;-83
2021/01/23 00:35:25;;;;;;;20.17;8.97;;;2.50;92.80;;;;;;4940902;29;20356;-84
2021/01/23 00:37:51;;;;;;;16.23;7.87;;;2.50;92.80;;;;;;4909427;29;20024;-84
2021/01/23 00:40:17;;;;;;;18.83;8.77;;;2.50;92.80;;;;;;4940772;29;20517;-84
2021/01/23 00:42:43;;;;;;;19.40;8.00;;;2.50;92.80;;;;;;4940815;29;20058;-84
2021/01/23 00:45:09;;;;;;;18.63;9.03;;;2.40;92.80;;;;;;4925049;29;20495;-84
2021/01/23 00:47:35;;;;;;;17.27;8.37;;;2.50;92.90;;;;;;4940627;29;20036;-84
2021/01/23 00:50:00;;;;;;;16.53;8.23;;;2.50;92.90;;;;;;4940670;29;20020;-84
2021/01/23 00:52:26;;;;;;;14.57;7.37;;;2.50;92.90;;;;;;4940782;29;20027;-83
2021/01/23 00:54:51;;;;;;;15.77;7.37;;;2.50;92.90;;;;;;4940597;29;20498;-84
2021/01/23 00:57:17;;;;;;;16.93;8.40;;;2.50;92.90;;;;;;4925126;29;20031;-83
2021/01/23 00:59:43;;;;;;;14.57;7.57;;;2.50;92.90;;;;;;4940688;29;20027;-84
2021/01/23 01:02:08;;;;;;;20.73;7.40;;;2.50;92.90;;;;;;4957796;29;20480;-83
2021/01/23 01:04:34;;;;;;;17.27;7.40;;;2.50;92.90;;;;;;4940671;29;20070;-83
2021/01/23 01:07:00;;;;;;;13.97;7.27;;;2.50;92.90;;;;;;4940559;29;20126;-84
2021/01/23 01:09:25;;;;;;;17.33;7.87;;;2.50;93.00;;;;;;4940419;29;20028;-84
2021/01/23 01:11:51;;;;;;;17.20;7.20;;;2.50;93.00;;;;;;4924817;29;20031;-83
2021/01/23 01:14:16;;;;;;;15.93;7.30;;;2.60;93.00;;;;;;4924804;29;20031;-84
2021/01/23 01:16:42;;;;;;;16.73;8.00;;;2.60;93.00;;;;;;4940539;29;20042;-84
2021/01/23 01:19:08;;;;;;;17.23;6.97;;;2.60;93.00;;;;;;4908779;29;20019;-84
2021/01/23 01:21:34;;;;;;;14.70;6.77;;;2.60;92.90;;;;;;4957539;29;20424;-85
2021/01/23 01:23:59;;;;;;;17.17;7.80;;;2.70;92.90;;;;;;4940290;29;20046;-83
2021/01/23 01:26:25;;;;;;;16.10;7.77;;;2.70;93.00;;;;;;4940525;29;20419;-84
2021/01/23 01:28:50;;;;;;;16.27;7.60;;;2.60;92.80;;;;;;4957045;28;20039;-84
2021/01/23 01:31:17;;;;;;;19.00;8.27;;;2.70;92.90;;;;;;4907841;29;20112;-84
2021/01/23 01:33:42;;;;;;;22.60;8.90;;;2.70;92.90;;;;;;4940014;29;20028;-84
2021/01/23 01:36:08;;;;;;;17.20;8.63;;;2.70;92.90;;;;;;4956981;29;20035;-84
2021/01/23 01:38:34;;;;;;;18.97;9.13;;;2.70;92.90;;;;;;4939677;29;20051;-84
2021/01/23 01:41:00;;;;;;;15.57;7.77;;;2.70;92.90;;;;;;4939891;29;20149;-84
2021/01/23 01:43:26;;;;;;;15.30;8.07;;;2.70;92.90;;;;;;4957113;29;20132;-84
2021/01/23 01:45:51;;;;;;;18.73;9.33;;;2.70;93.00;;;;;;4924301;29;20352;-85
2021/01/23 01:48:17;;;;;;;16.43;8.13;;;2.70;93.00;;;;;;4940009;29;20514;-84
2021/01/23 01:50:43;;;;;;;17.73;9.37;;;2.80;93.00;;;;;;4908010;29;20032;-84
2021/01/23 01:53:10;;;;;;;15.73;8.23;;;2.80;92.90;;;;;;4956773;29;20024;-84
2021/01/23 01:55:36;;;;;;;17.03;9.17;;;2.80;93.00;;;;;;4939586;29;20114;-85
2021/01/23 01:58:02;;;;;;;15.40;8.97;;;2.80;93.00;;;;;;4939362;29;20114;-85
2021/01/23 02:00:28;;;;;;;23.13;9.97;;;2.80;93.00;;;;;;4956830;29;20483;-84
2021/01/23 02:03:02;;;;;;;17.20;9.57;;;2.80;92.90;;;;;;4956444;29;20083;-85
2021/01/23 02:05:43;;;;;;;;;;;2.80;92.90;;;;;;4956918;29;20435;-85
2021/01/23 02:08:47;;;;;;;19.50;9.37;;;2.80;92.90;;;;;;4956755;29;20386;-85
2021/01/23 02:11:37;;;;;;;17.80;9.50;;;2.80;93.00;;;;;;4956718;29;20372;-84
2021/01/23 02:14:30;;;;;;;20.60;10.70;;;2.80;92.90;;;;;;4939230;29;20492;-84
2021/01/23 02:17:01;;;;;;;18.70;10.37;;;2.80;93.00;;;;;;4939358;29;20023;-84
2021/01/23 02:19:27;;;;;;;18.80;9.80;;;2.80;93.00;;;;;;4956306;29;20372;-84
2021/01/23 02:22:36;;;;;;;23.77;10.97;;;2.80;93.00;;;;;;4939347;29;20042;-85
2021/01/23 02:25:03;;;;;;;21.53;10.43;;;2.80;93.10;;;;;;4939199;29;20020;-85
2021/01/23 02:28:06;;;;;;;21.60;10.40;;;2.80;93.30;;;;;;4923475;29;20035;-84
2021/01/23 02:30:42;;;;;;;20.47;9.40;;;2.80;93.00;;;;;;4956227;29;20427;-85
2021/01/23 02:33:09;;;;;;;21.30;11.10;;;2.80;93.00;;;;;;4956240;29;20069;-85
2021/01/23 02:35:36;;;;;;;19.57;9.83;;;2.90;93.10;;;;;;4956194;29;20479;-84
2021/01/23 02:38:02;;;;;;;19.03;9.63;;;2.80;93.00;;;;;;4938900;29;20023;-84
2021/01/23 02:40:28;;;;;;;17.00;10.33;;;2.80;93.10;;;;;;4922926;28;20106;-84
2021/01/23 02:42:53;;;;;;;18.77;10.50;;;2.90;93.20;;;;;;4923373;29;20035;-84
2021/01/23 02:45:19;;;;;;;19.70;10.53;;;2.90;93.30;;;;;;4937626;29;20051;-84
2021/01/23 02:47:46;;;;;;;20.10;11.40;;;3.00;93.30;;;;;;4938814;29;20047;-84
2021/01/23 02:50:12;;;;;;;18.80;10.73;;;3.00;93.30;;;;;;4955899;29;20114;-84
2021/01/23 02:52:43;;;;;;;21.93;11.17;;;3.10;93.30;;;;;;4907090;29;20031;-84
2021/01/23 02:55:19;;;;;;;19.33;10.70;;;3.10;93.30;;;;;;4938643;29;20464;-85
2021/01/23 02:57:47;;;;;;;19.47;10.67;;;3.10;93.30;;;;;;4955851;29;20117;-85
2021/01/23 03:00:15;;;;;;;23.17;12.00;;;3.10;93.30;;;;;;4938777;29;20034;-84
2021/01/23 03:02:54;;;;;;;18.90;11.07;;;3.20;93.30;;;;;;4938778;29;20506;-85
2021/01/23 03:05:24;;;;;;;21.07;11.60;;;3.20;93.30;;;;;;4938375;29;20084;-85
2021/01/23 03:07:52;;;;;;;18.80;10.53;;;3.20;93.30;;;;;;4955480;29;20061;-84
2021/01/23 03:10:18;;;;;;;18.83;11.00;;;3.20;93.30;;;;;;4938484;29;20023;-83
2021/01/23 03:12:43;;;;;;;22.07;10.17;;;3.30;93.20;;;;;;4938352;29;20090;-83
2021/01/23 03:15:09;;;;;;;17.73;10.00;;;3.30;93.20;;;;;;4938589;29;20039;-83
2021/01/23 03:17:35;;;;;;;21.47;10.90;;;3.30;93.20;;;;;;4907023;29;20168;-85
2021/01/23 03:20:02;;;;;;;19.40;9.90;;;3.30;93.10;;;;;;4906915;29;20502;-83
2021/01/23 03:22:27;;;;;;;17.60;9.83;;;3.30;93.10;;;;;;4955433;29;20023;-83
2021/01/23 03:24:53;;;;;;;17.23;10.57;;;3.40;93.10;;;;;;4955592;29;20376;-83
2021/01/23 03:27:19;;;;;;;22.63;10.80;;;3.40;93.10;;;;;;4955566;29;20043;-86
2021/01/23 03:29:44;;;;;;;20.57;11.20;;;3.40;93.10;;;;;;4938358;29;20031;-84
2021/01/23 03:32:10;;;;;;;21.03;10.33;;;3.40;93.10;;;;;;4906611;29;20034;-83
2021/01/23 03:34:36;;;;;;;18.23;10.00;;;3.40;93.10;;;;;;4938305;29;20488;-84
2021/01/23 03:37:01;;;;;;;21.10;9.13;;;3.50;93.10;;;;;;4938533;29;20062;-84
2021/01/23 03:39:27;;;;;;;16.80;9.50;;;3.50;93.10;;;;;;4955638;29;20032;-84
2021/01/23 03:41:52;;;;;;;18.57;9.57;;;3.50;93.10;;;;;;4928750;29;20035;-84
2021/01/23 03:44:18;;;;;;;26.03;10.53;;;3.50;93.10;;;;;;4930163;29;20040;-83
2021/01/23 03:46:44;;;;;;;17.13;9.87;;;3.50;93.20;;;;;;4943008;29;20046;-83
2021/01/23 03:49:09;;;;;;;18.47;9.57;;;3.50;93.20;;;;;;4926350;29;20051;-84
2021/01/23 03:51:35;;;;;;;21.57;9.57;;;3.50;93.20;;;;;;4926880;29;20039;-83
2021/01/23 03:54:00;;;;;;;17.93;9.87;;;3.50;93.20;;;;;;4944566;29;20095;-77
2021/01/23 03:56:26;;;;;;;20.83;10.03;;;3.60;93.20;;;;;;4938270;29;20067;-77
2021/01/23 03:58:52;;;;;;;21.17;10.33;;;3.50;93.20;;;;;;4906762;29;20028;-77
2021/01/23 04:01:17;;;;;;;27.43;10.70;;;3.50;93.20;;;;;;4906816;29;20444;-77
2021/01/23 04:03:43;;;;;;;18.70;10.37;;;3.60;93.30;;;;;;4938137;29;20484;-76
2021/01/23 04:06:09;;;;;;;17.77;9.77;;;3.60;93.30;;;;;;4939310;29;20464;-76
2021/01/23 04:08:35;;;;;;;19.90;10.30;;;3.60;93.30;;;;;;4922608;29;20032;-78
2021/01/23 04:11:00;;;;;;;17.77;10.50;;;3.60;93.30;;;;;;4922381;29;20028;-77
2021/01/23 04:13:26;;;;;;;17.80;9.50;;;3.60;93.30;;;;;;4922672;29;20480;-79
2021/01/23 04:15:53;;;;;;;23.87;9.93;;;3.60;93.40;;;;;;4906508;29;20111;-76
2021/01/23 04:18:19;;;;;;;20.63;9.30;;;3.70;93.40;;;;;;4939241;29;20062;-76
2021/01/23 04:20:45;;;;;;;19.57;10.73;;;3.60;93.40;;;;;;4939216;29;20103;-76
2021/01/23 04:23:11;;;;;;;22.77;10.13;;;3.70;93.40;;;;;;4937933;29;20539;-76
2021/01/23 04:25:36;;;;;;;17.23;8.73;;;3.70;93.40;;;;;;4937951;29;20083;-78
2021/01/23 04:28:02;;;;;;;23.77;9.33;;;3.70;93.40;;;;;;4938063;29;20040;-77
2021/01/23 04:30:28;;;;;;;16.67;9.10;;;3.70;93.40;;;;;;4921928;29;20066;-76
2021/01/23 04:32:54;;;;;;;18.80;10.13;;;3.70;93.50;;;;;;4937581;29;20055;-76
2021/01/23 04:35:21;;;;;;;18.57;10.20;;;3.80;93.50;;;;;;4906236;29;20024;-77
2021/01/23 04:37:46;;;;;;;19.13;9.63;;;3.70;93.50;;;;;;4938806;29;20111;-77
2021/01/23 04:40:13;;;;;;;17.07;9.97;;;3.80;93.50;;;;;;4921704;29;20118;-77
2021/01/23 04:42:43;;;;;;;20.03;9.83;;;3.70;93.50;;;;;;4921753;29;20083;-76
2021/01/23 04:45:10;;;;;;;18.37;10.90;;;3.80;93.50;;;;;;4937431;29;20034;-76
2021/01/23 04:47:36;;;;;;;21.73;9.70;;;3.80;93.50;;;;;;4937413;29;20071;-76
2021/01/23 04:50:08;;;;;;;19.03;10.60;;;3.80;93.50;;;;;;4938888;29;20364;-77
2021/01/23 04:52:40;;;;;;;19.70;10.03;;;3.80;93.50;;;;;;4937315;29;20027;-76
2021/01/23 04:55:08;;;;;;;16.30;8.97;;;3.80;93.50;;;;;;4937351;29;20165;-76
2021/01/23 04:57:34;;;;;;;22.10;10.23;;;3.80;93.50;;;;;;4937360;29;20392;-77
2021/01/23 05:00:00;;;;;;;18.97;9.80;;;3.80;93.50;;;;;;4921409;29;20127;-76
2021/01/23 05:02:25;;;;;;;17.00;9.33;;;3.80;93.50;;;;;;4921535;29;20028;-76
2021/01/23 05:05:02;;;;;;;22.93;9.73;;;3.90;93.50;;;;;;4917967;29;20500;-76
2021/01/23 05:07:41;;;;;;;17.53;8.87;;;3.80;93.50;;;;;;4917917;29;20149;-77
2021/01/23 05:10:17;;;;;;;18.37;9.20;;;3.80;93.50;;;;;;4918010;29;20024;-76
2021/01/23 05:12:48;;;;;;;17.87;9.17;;;3.80;93.50;;;;;;4919439;29;20064;-77
2021/01/23 05:15:17;;;;;;;19.03;10.27;;;3.70;93.40;;;;;;4922431;29;20036;-76
2021/01/23 05:17:51;;;;;;;18.87;9.93;;;3.70;93.50;;;;;;4925163;29;20063;-77
2021/01/23 05:20:39;;;;;;;17.03;9.40;;;3.70;93.60;;;;;;4917765;29;20067;-75
2021/01/23 05:23:12;;;;;;;20.83;10.43;;;3.60;93.60;;;;;;4918774;29;20028;-77
2021/01/23 05:25:39;;;;;;;17.63;9.93;;;3.60;93.60;;;;;;4917884;29;20441;-76
2021/01/23 05:28:06;;;;;;;17.97;9.70;;;3.50;93.70;;;;;;4917550;29;20028;-77
2021/01/23 05:30:41;;;;;;;21.07;11.77;;;3.50;93.80;;;;;;4902022;29;20024;-76
2021/01/23 05:33:15;;;;;;;22.40;11.03;;;3.50;93.90;;;;;;4917577;29;20063;-76
2021/01/23 05:35:41;;;;;;;16.80;10.32;;;3.50;93.90;;;;;;4917758;29;20024;-77
2021/01/23 05:38:22;;;;;;;19.77;10.63;;;3.40;94.00;;;;;;4917503;29;20028;-75
2021/01/23 05:40:49;;;;;;;26.77;11.50;;;3.40;94.10;;;;;;4918901;29;20035;-76
2021/01/23 05:43:29;;;;;;;19.13;11.03;;;3.50;94.10;;;;;;4917541;29;20035;-77
2021/01/23 05:45:55;;;;;;;21.40;11.30;;;3.40;94.10;;;;;;4920483;29;20051;-77
2021/01/23 05:48:21;;;;;;;20.07;11.27;;;3.40;94.30;;;;;;4889191;29;20396;-77
2021/01/23 05:50:47;;;;;;;22.63;11.37;;;3.40;94.40;;;;;;4920755;29;20107;-76
2021/01/23 05:53:12;;;;;;;21.07;11.70;;;3.40;94.50;;;;;;4894121;29;20492;-77
2021/01/23 05:55:38;;;;;;;23.27;11.13;;;3.40;94.50;;;;;;4920594;29;20043;-84
2021/01/23 05:58:04;;;;;;;24.80;12.60;;;3.40;94.50;;;;;;4936228;29;20035;-82
2021/01/23 06:00:30;;;;;;;23.13;11.83;;;3.40;94.60;;;;;;4936079;29;20038;-83
2021/01/23 06:02:57;;;;;;;20.77;11.27;;;3.50;94.60;;;;;;4920332;29;20039;-83
2021/01/23 06:05:23;;;;;;;23.83;11.47;;;3.40;94.60;;;;;;4937421;29;20032;-84
2021/01/23 06:07:49;;;;;;;22.27;11.30;;;3.40;94.60;;;;;;4919991;29;20058;-85
2021/01/23 06:10:23;;;;;;;21.77;10.70;;;3.40;94.60;;;;;;4936955;29;20024;-85
2021/01/23 06:12:50;;;;;;;23.27;11.23;;;3.40;94.60;;;;;;4920100;29;20078;-83
2021/01/23 06:15:31;;;;;;;20.93;11.37;;;3.40;94.50;;;;;;4919617;29;20023;-85
2021/01/23 06:17:57;;;;;;;20.17;10.97;;;3.50;94.50;;;;;;4920075;29;20039;-85
2021/01/23 06:20:41;;;;;;;25.57;12.23;;;3.40;94.50;;;;;;4920172;29;20031;-84
2021/01/23 06:23:12;;;;;;;21.92;11.07;;;3.40;94.60;;;;;;4936916;29;20027;-83
2021/01/23 06:25:50;;;;;;;22.30;12.10;;;3.40;94.70;;;;;;4920159;29;20075;-85
2021/01/23 06:28:16;;;;;;;20.80;11.60;;;3.50;94.70;;;;;;4919860;29;20040;-83
2021/01/23 06:30:42;;;;;;;22.77;12.33;;;3.50;94.80;;;;;;4920239;29;20063;-83
2021/01/23 06:33:23;;;;;;;20.70;11.63;;;3.50;94.80;;;;;;4919895;29;20060;-84
2021/01/23 06:36:04;;;;;;;24.57;12.10;;;3.50;94.80;;;;;;4919752;29;20032;-83
2021/01/23 06:38:30;;;;;;;24.03;12.33;;;3.50;94.80;;;;;;4919624;29;20042;-76
2021/01/23 06:41:16;;;;;;;18.23;11.87;;;3.60;94.80;;;;;;4936641;29;20043;-76
2021/01/23 06:44:12;;;;;;;21.80;11.87;;;3.60;94.80;;;;;;4936588;29;20488;-76
2021/01/23 06:46:51;;;;;;;24.80;12.70;;;3.70;94.80;;;;;;4919320;29;20040;-77
2021/01/23 06:49:17;;;;;;;24.53;12.67;;;3.70;94.80;;;;;;4919717;29;20102;-76
2021/01/23 06:51:43;;;;;;;22.13;12.20;;;3.80;94.70;;;;;;4936638;29;20531;-76
2021/01/23 06:54:13;;;;;;;23.73;13.70;;;3.70;94.70;;;;;;4919714;29;20032;-76
2021/01/23 06:56:47;;;;;;;20.63;12.30;;;3.80;94.70;;;;;;4903666;29;20031;-77
2021/01/23 06:59:25;;;;;;;16.00;8.60;;;3.80;94.60;;;;;;4903681;29;20135;-77
2021/01/23 07:02:04;;;;;;;25.10;11.80;;;3.80;94.60;;;;;;4919770;29;20032;-76
2021/01/23 07:04:32;;;;;;;24.17;11.30;;;3.80;94.50;;;;;;4936583;29;20079;-76
2021/01/23 07:06:58;;;;;;;23.63;13.10;;;3.80;94.50;;;;;;4919275;29;20031;-76
2021/01/23 07:09:43;;;;;;;27.20;13.13;;;3.80;94.50;;;;;;4903494;29;20039;-76
2021/01/23 07:12:08;;;;;;;18.17;10.90;;;3.80;94.50;;;;;;4936256;29;20065;-77
2021/01/23 07:14:34;;;;;;;19.67;12.00;;;3.80;94.50;;;;;;4919047;29;20409;-77
2021/01/23 07:16:59;;;;;;;23.63;12.93;;;3.90;94.50;;;;;;4919258;29;20087;-76
2021/01/23 07:19:26;;;;;;;21.40;12.93;;;3.90;94.50;;;;;;4887998;29;20433;-77
2021/01/23 07:21:54;;;;;;;20.73;11.37;;;3.90;94.40;;;;;;4936196;29;20028;-76
2021/01/23 07:24:20;;;;;;;21.53;12.43;;;3.90;94.40;;;;;;4903469;29;20035;-76
2021/01/23 07:26:46;;;;;;;25.23;12.53;;;3.90;94.40;;;;;;4918825;29;20050;-76
2021/01/23 07:29:12;;;;;;;22.80;11.53;;;3.90;94.40;;;;;;4887043;29;20031;-86
2021/01/23 07:31:38;;;;;;;24.83;11.70;;;3.90;94.30;;;;;;4919068;29;20483;-83
2021/01/23 07:34:11;;;;;;;22.17;11.77;;;3.90;94.30;;;;;;4935999;29;20499;-85
2021/01/23 07:36:42;;;;;;;22.50;12.52;;;4.00;94.30;;;;;;4936159;29;20062;-84
2021/01/23 07:39:13;;;;;;;22.23;12.20;;;3.90;94.20;;;;;;4919227;29;20027;-84
2021/01/23 07:41:54;;;;;;;23.93;12.07;;;4.00;94.20;;;;;;4918976;29;20487;-84
2021/01/23 07:44:23;;;;;;;21.03;11.67;;;3.90;94.20;;;;;;4918780;29;20027;-84
2021/01/23 07:46:50;;;;;;;22.90;11.83;;;4.00;94.20;;;;;;4919277;29;20122;-83
2021/01/23 07:49:23;;;;;;;21.93;11.93;;;4.00;94.10;;;;;;4935823;29;20036;-84
2021/01/23 07:51:51;;;;;;;26.63;11.07;;;4.00;94.10;;;;;;4918870;29;20047;-84
2021/01/23 07:54:16;;;;;;;25.03;11.40;;;3.90;94.00;;;;;;4903468;29;20056;-84
2021/01/23 07:56:58;;;;;;;23.57;12.27;;;3.90;94.00;;;;;;4903257;29;20500;-84
2021/01/23 07:59:41;;;;;;;20.93;11.17;;;3.90;94.00;;;;;;4935737;29;20476;-84
2021/01/23 08:02:06;;;;;;;26.03;12.77;;;3.90;94.00;;;;;;4918848;29;20035;-84
2021/01/23 08:04:34;;;;;;;23.10;11.20;;;3.90;94.10;;;;;;4887542;29;20032;-83
2021/01/23 08:07:22;;;;;;;21.83;11.17;;;3.90;94.10;;;;;;4918704;29;20242;-84
2021/01/23 08:10:09;;;;;;;25.27;12.93;;;3.90;94.10;;;;;;4918718;29;20484;-81
2021/01/23 08:12:37;;;;;;;23.80;12.63;;;3.90;94.10;;;;;;4918649;29;20424;-85
2021/01/23 08:15:05;;;;;;;21.67;11.53;;;3.90;94.10;;;;;;4936022;29;20042;-85
2021/01/23 08:17:44;;;;;;;24.10;12.27;;;3.90;94.10;;;;;;4918789;29;20043;-83
2021/01/23 08:20:15;;;;;;;22.47;11.83;;;4.00;94.20;;;;;;4918701;29;20119;-83
2021/01/23 08:23:11;;;;;;;22.37;10.93;;;4.00;94.20;;;;;;4918652;29;20027;-83
2021/01/23 08:25:50;;;;;;;19.30;11.30;;;4.10;94.30;;;;;;4916628;29;20048;-83
2021/01/23 08:28:23;;;;;;;20.30;11.07;;;4.10;94.20;;;;;;4918599;29;20087;-82
2021/01/23 08:30:49;;;;;;;13.67;8.50;;;4.20;94.20;;;;;;4935709;29;20028;-86
2021/01/23 08:33:14;;;;;;;22.40;10.93;;;4.30;94.10;;;;;;4902741;29;20051;-83
2021/01/23 08:35:41;;;;;;;18.50;11.03;;;4.30;93.90;;;;;;4887094;29;20043;-82
2021/01/23 08:38:09;;;;;;;17.17;9.80;;;4.30;93.90;;;;;;4935444;29;20476;-85
2021/01/23 08:40:35;;;;;;;18.40;9.97;;;4.20;93.70;;;;;;4921592;29;20035;-81
2021/01/23 08:43:01;;;;;;;16.63;9.03;;;4.20;93.70;;;;;;4922014;29;20040;-83
2021/01/23 08:45:27;;;;;;;18.83;9.03;;;4.20;93.70;;;;;;4921551;29;20047;-80
2021/01/23 08:47:53;;;;;;;20.07;9.43;;;4.20;93.60;;;;;;4921020;29;20050;-79
2021/01/23 08:50:19;;;;;;;13.40;8.27;;;4.30;93.60;;;;;;4923120;29;20034;-80
2021/01/23 08:52:44;;;;;;;17.47;8.53;;;4.30;93.60;;;;;;4950140;29;20128;-80
2021/01/23 08:55:10;;;;;;;17.97;8.87;;;4.30;93.40;;;;;;4941982;29;20039;-80
2021/01/23 08:57:36;;;;;;;16.83;9.40;;;4.40;93.40;;;;;;4957609;29;20027;-80
2021/01/23 09:00:05;;;;;;;19.07;8.87;;;4.40;93.30;;;;;;4954871;29;20030;-80
2021/01/23 09:02:31;;;;;;;22.33;9.73;;;4.40;93.30;;;;;;4929967;29;20163;-81
2021/01/23 09:04:56;;;;;;;19.57;9.10;;;4.40;93.30;;;;;;4937062;29;20059;-82
2021/01/23 09:07:22;;;;;;;18.47;8.80;;;4.40;93.20;;;;;;4921097;29;20028;-81
2021/01/23 09:09:47;;;;;;;15.77;8.23;;;4.50;93.10;;;;;;4936479;29;20043;-80
2021/01/23 09:12:13;;;;;;;16.47;7.87;;;4.50;93.00;;;;;;4889921;29;20123;-82
2021/01/23 09:14:39;;;;;;;21.03;8.13;;;4.50;92.90;;;;;;4938358;29;20032;-81
2021/01/23 09:17:05;;;;;;;19.03;7.93;;;4.50;92.90;;;;;;4914391;29;20039;-82
2021/01/23 09:19:31;;;;;;;21.57;8.70;;;4.50;92.90;;;;;;4906314;29;20424;-84
2021/01/23 09:21:57;;;;;;;20.00;8.57;;;4.50;92.80;;;;;;4891176;29;20070;-82
2021/01/23 09:24:23;;;;;;;21.63;8.63;;;4.50;92.70;;;;;;4932799;29;20023;-80
2021/01/23 09:26:48;;;;;;;18.47;9.10;;;4.50;92.70;;;;;;4921192;29;20041;-83
2021/01/23 09:29:14;;;;;;;18.47;8.37;;;4.60;92.70;;;;;;4920742;29;20028;-82
2021/01/23 09:31:40;;;;;;;17.50;9.17;;;4.60;92.70;;;;;;4937734;29;20095;-82
2021/01/23 09:34:06;;;;;;;14.97;7.60;;;4.60;92.60;;;;;;4920800;29;20030;-82
2021/01/23 09:36:32;;;;;;;18.97;8.40;;;4.60;92.50;;;;;;4920854;29;20039;-83
2021/01/23 09:38:58;;;;;;;14.23;7.77;;;4.60;92.50;;;;;;4905270;29;20031;-81
2021/01/23 09:41:25;;;;;;;15.60;7.40;;;4.70;92.50;;;;;;4920713;29;20144;-82
2021/01/23 09:43:51;;;;;;;16.80;6.73;;;4.70;92.40;;;;;;4936461;29;20059;-82
2021/01/23 09:46:16;;;;;;;14.30;7.67;;;4.80;92.60;;;;;;4920522;29;20070;-80
2021/01/23 09:48:43;;;;;;;17.30;7.63;;;5.00;92.70;;;;;;4889469;29;20503;-83
2021/01/23 09:51:08;;;;;;;21.97;7.40;;;5.10;92.70;;;;;;4905115;29;20056;-82
2021/01/23 09:53:34;;;;;;;10.33;5.40;;;5.40;92.70;;;;;;4939206;29;20024;-82
2021/01/23 09:56:00;;;;;;;13.50;5.83;;;5.70;93.00;;;;;;4920656;29;20047;-82
2021/01/23 09:58:26;;;;;;;10.07;5.40;;;6.10;93.10;;;;;;4888767;29;20063;-82
2021/01/23 10:00:51;;;;;;;9.10;4.63;;;6.60;92.80;;;;;;4904560;29;20527;-82
2021/01/23 10:03:17;;;;;;;8.63;4.63;;;7.00;93.20;;;;;;4904841;29;20095;-76
2021/01/23 10:05:43;;;;;;;8.53;3.97;;;7.70;93.00;;;;;;4920218;29;20408;-75
2021/01/23 10:08:09;;;;;;;8.00;3.40;;;8.30;92.10;;;;;;4923767;29;20111;-76
2021/01/23 10:10:34;;;;;;;9.87;3.07;;;8.90;90.20;;;;;;4935850;29;20387;-75
2021/01/23 10:13:00;;;;;;;8.48;2.67;;;9.40;88.10;;;;;;4955865;29;20032;-75
2021/01/23 10:15:26;;;;;;;6.30;2.25;;;10.00;88.20;;;;;;4939036;29;20024;-76
2021/01/23 10:17:51;;;;;;;8.00;2.58;;;10.50;86.70;;;;;;4938758;29;20380;-75
2021/01/23 10:20:17;;;;;;;8.93;3.15;;;11.00;84.60;;;;;;4956070;29;20031;-76
2021/01/23 10:22:43;;;;;;;7.88;3.35;;;11.30;76.70;;;;;;4938966;29;20031;-77
2021/01/23 10:25:09;;;;;;;5.68;2.30;;;11.50;75.50;;;;;;4939057;29;20448;-76
2021/01/23 10:27:35;;;;;;;6.60;2.47;;;11.70;75.00;;;;;;4956104;29;20023;-75
2021/01/23 10:30:01;;;;;;;5.45;2.30;;;11.90;74.60;;;;;;4938752;29;20022;-75
2021/01/23 10:32:26;;;;;;;8.02;2.17;;;11.90;71.30;;;;;;4938855;29;20376;-75
2021/01/23 10:34:52;;;;;;;5.55;2.38;;;12.00;72.50;;;;;;4939149;29;20023;-76
2021/01/23 10:37:18;;;;;;;6.97;2.55;;;12.40;71.90;;;;;;4922860;29;20030;-76
2021/01/23 10:39:44;;;;;;;9.38;2.47;;;12.60;68.40;;;;;;4938733;29;20472;-76
2021/01/23 10:42:10;;;;;;;7.18;2.35;;;13.00;67.20;;;;;;4955367;29;20023;-76
2021/01/23 10:44:40;;;;;;;8.45;3.13;;;13.20;63.90;;;;;;4936725;29;20046;-76
2021/01/23 10:47:06;;;;;;;6.13;2.72;;;13.00;62.70;;;;;;4903992;29;20050;-76
2021/01/23 10:49:32;;;;;;;10.32;3.70;;;12.70;62.20;;;;;;4919501;29;20036;-75
2021/01/23 10:51:58;;;;;;;6.25;2.42;;;12.60;62.40;;;;;;4919855;29;20058;-76
2021/01/23 10:54:24;;;;;;;8.18;2.50;;;12.60;62.90;;;;;;4919288;29;20032;-76
2021/01/23 10:56:49;;;;;;;9.45;2.38;;;12.60;62.90;;;;;;4919809;29;20044;-75
2021/01/23 10:59:15;;;;;;;7.15;2.42;;;12.50;61.50;;;;;;4888255;29;20131;-76
2021/01/23 11:01:40;;;;;;;6.88;2.03;;;12.40;62.50;;;;;;4888124;29;20062;-73
2021/01/23 11:04:06;;;;;;;6.45;2.03;;;12.40;61.80;;;;;;4919476;29;20044;-76
2021/01/23 11:06:32;;;;;;;10.45;2.20;;;12.30;60.80;;;;;;4919955;29;20035;-76
2021/01/23 11:08:57;;;;;;;8.90;2.35;;;12.00;60.90;;;;;;4904017;29;20477;-74
2021/01/23 11:11:24;;;;;;;8.27;2.33;;;11.60;61.20;;;;;;4936593;29;20136;-74
2021/01/23 11:13:49;;;;;;;7.03;2.72;;;11.30;62.30;;;;;;4919302;29;20034;-74
2021/01/23 11:16:15;;;;;;;6.18;2.10;;;11.20;63.80;;;;;;4888229;29;20122;-74
2021/01/23 11:18:41;;;;;;;8.80;2.33;;;11.30;64.70;;;;;;4936175;29;20035;-74
2021/01/23 11:21:06;;;;;;;4.72;1.88;;;11.60;65.20;;;;;;4919667;29;20039;-74
2021/01/23 11:23:32;;;;;;;9.43;2.58;;;12.20;64.90;;;;;;4935002;29;20036;-75
2021/01/23 11:25:58;;;;;;;8.07;1.90;;;12.70;64.40;;;;;;4903299;29;20084;-74
2021/01/23 11:28:24;;;;;;;8.00;1.75;;;12.90;64.50;;;;;;4887828;29;20444;-75
2021/01/23 11:30:53;;;;;;;6.07;1.95;;;13.20;63.30;;;;;;4919644;29;20035;-75
2021/01/23 11:33:19;;;;;;;7.07;1.80;;;13.60;62.50;;;;;;4919692;29;20031;-74
2021/01/23 11:35:45;;;;;;;8.43;2.17;;;13.50;61.00;;;;;;4919459;29;20031;-76
2021/01/23 11:38:11;;;;;;;6.10;1.90;;;13.40;60.10;;;;;;4903249;29;20036;-75
2021/01/23 11:40:36;;;;;;;6.53;2.08;;;13.10;57.60;;;;;;4903370;29;20035;-75
2021/01/23 11:43:02;;;;;;;5.82;2.10;;;12.80;58.00;;;;;;4903721;29;20036;-74
2021/01/23 11:45:28;;;;;;;7.28;2.38;;;12.50;57.20;;;;;;4919393;29;20099;-76
2021/01/23 11:47:53;;;;;;;5.05;1.90;;;12.10;58.00;;;;;;4934581;29;20122;-74
2021/01/23 11:50:19;;;;;;;5.78;2.28;;;11.90;58.30;;;;;;4903249;29;20079;-76
2021/01/23 11:52:44;;;;;;;4.78;1.77;;;11.80;59.20;;;;;;4903219;29;20486;-76
2021/01/23 11:55:10;;;;;;;7.88;2.35;;;11.70;59.00;;;;;;4903543;29;20020;-75
2021/01/23 11:57:36;;;;;;;6.57;2.33;;;11.70;59.10;;;;;;4902981;29;20387;-81
2021/01/23 12:00:06;;;;;;;5.05;1.92;;;11.60;59.60;;;;;;4918830;29;20046;-80
2021/01/23 12:02:32;;;;;;;3.92;1.65;;;11.70;59.70;;;;;;4935791;29;20027;-81
2021/01/23 12:04:58;;;;;;;5.88;1.98;;;11.70;60.10;;;;;;4935854;29;20039;-82
2021/01/23 12:07:23;;;;;;;7.32;1.80;;;11.70;60.30;;;;;;4935602;29;20086;-80
2021/01/23 12:09:49;;;;;;;7.63;2.28;;;11.70;60.00;;;;;;4919137;29;20372;-80
2021/01/23 12:12:15;;;;;;;6.72;2.35;;;11.50;59.20;;;;;;4902959;29;20046;-80
2021/01/23 12:14:42;;;;;;;7.10;2.13;;;11.30;60.50;;;;;;4941824;29;20030;-79
2021/01/23 12:17:07;;;;;;;7.55;2.35;;;11.30;60.40;;;;;;4922354;29;20027;-80
2021/01/23 12:19:33;;;;;;;6.97;2.60;;;11.10;60.10;;;;;;4922159;29;20118;-80
2021/01/23 12:21:59;;;;;;;6.23;2.60;;;11.00;60.30;;;;;;4906456;29;20507;-79
2021/01/23 12:24:24;;;;;;;8.00;2.50;;;10.80;60.30;;;;;;4939072;29;20090;-79
2021/01/23 12:26:50;;;;;;;5.40;2.00;;;10.60;61.30;;;;;;4922107;29;20028;-79
2021/01/23 12:29:16;;;;;;;7.00;2.50;;;10.40;61.10;;;;;;4924240;29;20062;-81
2021/01/23 12:31:41;;;;;;;4.07;1.67;;;10.20;61.60;;;;;;4938977;29;20058;-82
2021/01/23 12:34:07;;;;;;;7.57;2.30;;;10.20;62.30;;;;;;4906437;29;20051;-81
2021/01/23 12:36:33;;;;;;;5.83;2.30;;;10.10;62.60;;;;;;4890686;29;20027;-80
2021/01/23 12:38:58;;;;;;;8.10;2.57;;;10.10;62.70;;;;;;4922021;29;20357;-81
2021/01/23 12:41:24;;;;;;;6.80;3.20;;;9.90;62.90;;;;;;4921729;29;20032;-80
2021/01/23 12:43:50;;;;;;;11.37;3.80;;;9.90;63.40;;;;;;4906187;29;20043;-80
2021/01/23 12:46:17;;;;;;;10.10;3.20;;;9.80;63.70;;;;;;4905890;29;20102;-82
2021/01/23 12:48:42;;;;;;;9.27;3.30;;;9.60;64.10;;;;;;4920779;29;20415;-79